Impacts METAR Board
IDs:

KCLT - Charlotte/Douglas In, NC, US

Updated at: 0100 UTC 05 Jul 2022
Potential Impact None Slight Moderate High
Time 04/13Z 04/14Z 04/15Z 04/16Z 04/17Z 04/18Z 04/19Z 04/20Z 04/21Z 04/22Z 04/23Z 05/00Z 05/01Z
Temp80 82 84 86 86 79 83 88 89 87 88 86 81
Dewpt71 72 72 72 72 72 73 74 73 72 71 71 72
Altim30.17 30.17 30.17 30.17 30.16 30.14 30.13 30.12 30.11 30.10 30.10 30.12 30.12
VIS10 10 10 10 10 2 7 10 10 10 10 10 10
CIG100 85 150 160 29 27 55 150 -- -- -- -- --
CoverBKNBKNBKNBKNBKNBKNBKNBKNSCTSCTSCTSCTSCT
FltCatVFRVFRVFRVFRMVFRIFRVFRVFRVFRVFRVFRVFRVFR
WX-------------RA------------
WDir308004014012060140100100110150180
WSpd9 7 4 6 6 13 5 4 7 6 7 12 7
WGst-- -- -- -- -- 20 -- -- -- -- -- -- --
R05/23
XWnd 3 -4 VRB 1 -6 -12 -1 -4 -6 -5 -6 -12 -5
XGst -- -- -- -- -- -19 -- -- -- -- -- -- --
R18/36
XWnd 5 7 VRB 4 4 11 4 2 7 6 6 5 -0
XGst -- -- -- -- -- 17 -- -- -- -- -- -- --
Raw hourly METARs
KCLT 041252Z 03009KT 10SM SCT014 BKN100 27/22 A3017 RMK SLP206 T02670217
KCLT 041352Z 08007KT 10SM FEW016 BKN085 BKN100 28/22 A3017 RMK SLP209 T02780222
KCLT 041452Z VRB04KT 10SM FEW020 SCT070 SCT100 BKN150 29/22 A3017 RMK SLP209 TCU DSNT E-SE T02890222 50008
KCLT 041552Z 04006KT 10SM SCT026 SCT070 BKN160 30/22 A3017 RMK SLP206 T03000222
KCLT 041652Z 14006KT 10SM BKN029TCU BKN050 BKN160 30/22 A3016 RMK SLP204 TCU W AND NW-NE T03000222
KCLT 041805Z 12013G20KT 2SM FEW018 BKN027CB BKN060 26/22 A3014 RMK RAB1755 VIS E-S 1 CB OHD-E-SE MOV SLWLY S +RA AT AP P0000 T02610222
KCLT 041852Z 06005KT 7SM -RA FEW029CB BKN055 BKN100 BKN200 28/23 A3013 RMK RAB1755 SLP195 CB S MOV S TCU DSNT SW AND NW-N +RA AT AP P0001 T02830228
KCLT 041952Z 14004KT 10SM FEW032 SCT070 SCT100 BKN150 31/23 A3012 RMK RAE1856 SLP190 TCU DSNT N-NE AND SE P0000 T03110233
KCLT 042052Z 10007KT 10SM FEW032 FEW070 SCT100 SCT150 32/23 A3011 RMK SLP186 60001 T03170228 56013
KCLT 042152Z COR 10006KT 10SM FEW038 SCT070CB SCT150 31/22 A3010 RMK SLP183 CB DSNT S T03060222
KCLT 042252Z 11007KT 10SM FEW050 SCT100 SCT150 31/22 A3010 RMK SLP183 T03110217
KCLT 042352Z 15012KT 10SM FEW050 SCT100 SCT150 30/22 A3012 RMK SLP189 60001 T03000217 10322 20261 53003
KCLT 050052Z 18007KT 10SM FEW060 SCT170 SCT250 27/22 A3012 RMK SLP190 T02720222



Page loaded:  01:01 UTC  |   06:01 PM Pacific  |   07:01 PM Mountain  |   08:01 PM Central  |   09:01 PM Eastern

 

ADVISORIES

FORECASTS

FORECASTS

OBSERVATIONS

USER TOOLS

ABOUT US